<?xml version="1.0" encoding="UTF-8" standalone="no" ?>
<gpx xmlns="http://www.topografix.com/GPX/1/1" xmlns:xsi="http://www.w3.org/2001/XMLSchema-instance" xsi:schemaLocation="http://www.topografix.com/GPX/1/1 http://www.topografix.com/GPX/1/1/gpx.xsd" version="1.1" creator="VisuGPX - https://www.visugpx.com">
  <metadata>
    <name>10865054-Guérande 15km</name>
  </metadata>
  <wpt lat="47.34736" lon="-2.51064">
    <ele>7.7</ele>
    <name><![CDATA[Départ Gr3 et 4]]></name>
  </wpt>
  <wpt lat="47.33125" lon="-2.48388">
    <ele>3.7</ele>
    <name><![CDATA[Bus et Pique-Nique                         Gr3 et 4]]></name>
  </wpt>
  <wpt lat="47.31653" lon="-2.45311">
    <ele>2.9</ele>
    <name><![CDATA[Reprise Possible]]></name>
  </wpt>
  <wpt lat="47.33068" lon="-2.4196">
    <ele>43.2</ele>
    <name><![CDATA[Parking                                Gustave Flaubert]]></name>
  </wpt>
  <trk>
    <name><![CDATA[10865054-Guérande 15km]]></name>
    <trkseg>
      <trkpt lat="47.34689" lon="-2.51083">
        <ele>5</ele>
        <time>2020-03-14T16:21:05Z</time>
      </trkpt>
      <trkpt lat="47.34652" lon="-2.51051">
        <ele>5</ele>
        <time>2020-03-14T16:22:02Z</time>
      </trkpt>
      <trkpt lat="47.34596" lon="-2.51002">
        <ele>6</ele>
        <time>2020-03-14T16:23:29Z</time>
      </trkpt>
      <trkpt lat="47.34461" lon="-2.50814">
        <ele>5</ele>
        <time>2020-03-14T16:27:37Z</time>
      </trkpt>
      <trkpt lat="47.34418" lon="-2.50752">
        <ele>7</ele>
        <time>2020-03-14T16:28:57Z</time>
      </trkpt>
      <trkpt lat="47.34383" lon="-2.50746">
        <ele>6</ele>
        <time>2020-03-14T16:29:44Z</time>
      </trkpt>
      <trkpt lat="47.3435" lon="-2.50721">
        <ele>6</ele>
        <time>2020-03-14T16:30:34Z</time>
      </trkpt>
      <trkpt lat="47.34298" lon="-2.50689">
        <ele>6</ele>
        <time>2020-03-14T16:31:49Z</time>
      </trkpt>
      <trkpt lat="47.34167" lon="-2.50636">
        <ele>4</ele>
        <time>2020-03-14T16:34:50Z</time>
      </trkpt>
      <trkpt lat="47.34025" lon="-2.50559">
        <ele>5</ele>
        <time>2020-03-14T16:38:12Z</time>
      </trkpt>
      <trkpt lat="47.33901" lon="-2.50515">
        <ele>4</ele>
        <time>2020-03-14T16:41:02Z</time>
      </trkpt>
      <trkpt lat="47.33796" lon="-2.50482">
        <ele>4</ele>
        <time>2020-03-14T16:43:25Z</time>
      </trkpt>
      <trkpt lat="47.33714" lon="-2.50454">
        <ele>4</ele>
        <time>2020-03-14T16:45:18Z</time>
      </trkpt>
      <trkpt lat="47.33633" lon="-2.50416">
        <ele>3</ele>
        <time>2020-03-14T16:47:11Z</time>
      </trkpt>
      <trkpt lat="47.33542" lon="-2.50395">
        <ele>4</ele>
        <time>2020-03-14T16:49:14Z</time>
      </trkpt>
      <trkpt lat="47.33362" lon="-2.50354">
        <ele>5</ele>
        <time>2020-03-14T16:53:17Z</time>
      </trkpt>
      <trkpt lat="47.33192" lon="-2.5033">
        <ele>4</ele>
        <time>2020-03-14T16:57:05Z</time>
      </trkpt>
      <trkpt lat="47.33039" lon="-2.50312">
        <ele>5</ele>
        <time>2020-03-14T17:00:30Z</time>
      </trkpt>
      <trkpt lat="47.32934" lon="-2.50297">
        <ele>3</ele>
        <time>2020-03-14T17:02:51Z</time>
      </trkpt>
      <trkpt lat="47.3271" lon="-2.50269">
        <ele>4</ele>
        <time>2020-03-14T17:07:51Z</time>
      </trkpt>
      <trkpt lat="47.32663" lon="-2.50268">
        <ele>4</ele>
        <time>2020-03-14T17:08:53Z</time>
      </trkpt>
      <trkpt lat="47.32631" lon="-2.50283">
        <ele>4</ele>
        <time>2020-03-14T17:09:38Z</time>
      </trkpt>
      <trkpt lat="47.32575" lon="-2.50275">
        <ele>4</ele>
        <time>2020-03-14T17:10:53Z</time>
      </trkpt>
      <trkpt lat="47.32558" lon="-2.50288">
        <ele>3</ele>
        <time>2020-03-14T17:11:19Z</time>
      </trkpt>
      <trkpt lat="47.32529" lon="-2.50293">
        <ele>3</ele>
        <time>2020-03-14T17:11:58Z</time>
      </trkpt>
      <trkpt lat="47.32473" lon="-2.50281">
        <ele>4</ele>
        <time>2020-03-14T17:13:13Z</time>
      </trkpt>
      <trkpt lat="47.32425" lon="-2.5029">
        <ele>4</ele>
        <time>2020-03-14T17:14:18Z</time>
      </trkpt>
      <trkpt lat="47.32336" lon="-2.50298">
        <ele>2</ele>
        <time>2020-03-14T17:16:17Z</time>
      </trkpt>
      <trkpt lat="47.32291" lon="-2.50306">
        <ele>3</ele>
        <time>2020-03-14T17:17:17Z</time>
      </trkpt>
      <trkpt lat="47.32272" lon="-2.50309">
        <ele>4</ele>
        <time>2020-03-14T17:17:43Z</time>
      </trkpt>
      <trkpt lat="47.3227" lon="-2.50288">
        <ele>4</ele>
        <time>2020-03-14T17:18:02Z</time>
      </trkpt>
      <trkpt lat="47.3209" lon="-2.50296">
        <ele>6</ele>
        <time>2020-03-14T17:22:02Z</time>
      </trkpt>
      <trkpt lat="47.32" lon="-2.50303">
        <ele>5</ele>
        <time>2020-03-14T17:24:02Z</time>
      </trkpt>
      <trkpt lat="47.31924" lon="-2.5033">
        <ele>6</ele>
        <time>2020-03-14T17:25:47Z</time>
      </trkpt>
      <trkpt lat="47.31851" lon="-2.50342">
        <ele>5</ele>
        <time>2020-03-14T17:27:25Z</time>
      </trkpt>
      <trkpt lat="47.318" lon="-2.50339">
        <ele>5</ele>
        <time>2020-03-14T17:28:33Z</time>
      </trkpt>
      <trkpt lat="47.31737" lon="-2.50345">
        <ele>5</ele>
        <time>2020-03-14T17:29:57Z</time>
      </trkpt>
      <trkpt lat="47.31624" lon="-2.50379">
        <ele>4</ele>
        <time>2020-03-14T17:32:31Z</time>
      </trkpt>
      <trkpt lat="47.31614" lon="-2.50393">
        <ele>3</ele>
        <time>2020-03-14T17:32:49Z</time>
      </trkpt>
      <trkpt lat="47.31588" lon="-2.5043">
        <ele>2</ele>
        <time>2020-03-14T17:33:38Z</time>
      </trkpt>
      <trkpt lat="47.31525" lon="-2.50428">
        <ele>4</ele>
        <time>2020-03-14T17:35:02Z</time>
      </trkpt>
      <trkpt lat="47.31469" lon="-2.50451">
        <ele>4</ele>
        <time>2020-03-14T17:36:19Z</time>
      </trkpt>
      <trkpt lat="47.31378" lon="-2.5051">
        <ele>5</ele>
        <time>2020-03-14T17:38:32Z</time>
      </trkpt>
      <trkpt lat="47.31318" lon="-2.50533">
        <ele>5</ele>
        <time>2020-03-14T17:39:55Z</time>
      </trkpt>
      <trkpt lat="47.31268" lon="-2.50571">
        <ele>2</ele>
        <time>2020-03-14T17:41:10Z</time>
      </trkpt>
      <trkpt lat="47.31229" lon="-2.5053">
        <ele>5</ele>
        <time>2020-03-14T17:42:14Z</time>
      </trkpt>
      <trkpt lat="47.3119" lon="-2.50479">
        <ele>4</ele>
        <time>2020-03-14T17:43:23Z</time>
      </trkpt>
      <trkpt lat="47.31333" lon="-2.50286">
        <ele>3</ele>
        <time>2020-03-14T17:47:42Z</time>
      </trkpt>
      <trkpt lat="47.31374" lon="-2.50225">
        <ele>3</ele>
        <time>2020-03-14T17:49:00Z</time>
      </trkpt>
      <trkpt lat="47.31415" lon="-2.50155">
        <ele>5</ele>
        <time>2020-03-14T17:50:23Z</time>
      </trkpt>
      <trkpt lat="47.31607" lon="-2.49859">
        <ele>11</ele>
        <time>2020-03-14T17:56:34Z</time>
      </trkpt>
      <trkpt lat="47.31894" lon="-2.49441">
        <ele>10</ele>
        <time>2020-03-14T18:05:32Z</time>
      </trkpt>
      <trkpt lat="47.31968" lon="-2.49313">
        <ele>8</ele>
        <time>2020-03-14T18:08:04Z</time>
      </trkpt>
      <trkpt lat="47.32092" lon="-2.49134">
        <ele>3</ele>
        <time>2020-03-14T18:11:56Z</time>
      </trkpt>
      <trkpt lat="47.3213" lon="-2.49067">
        <ele>2</ele>
        <time>2020-03-14T18:13:15Z</time>
      </trkpt>
      <trkpt lat="47.32135" lon="-2.4902">
        <ele>1</ele>
        <time>2020-03-14T18:13:58Z</time>
      </trkpt>
      <trkpt lat="47.32145" lon="-2.48923">
        <ele>2.8</ele>
        <time>2020-03-14T18:15:27Z</time>
      </trkpt>
      <trkpt lat="47.32209" lon="-2.48799">
        <ele>2</ele>
        <time>2020-03-14T18:17:48Z</time>
      </trkpt>
      <trkpt lat="47.32237" lon="-2.48715">
        <ele>1</ele>
        <time>2020-03-14T18:19:12Z</time>
      </trkpt>
      <trkpt lat="47.32272" lon="-2.4864">
        <ele>1</ele>
        <time>2020-03-14T18:20:35Z</time>
      </trkpt>
      <trkpt lat="47.32314" lon="-2.48609">
        <ele>1</ele>
        <time>2020-03-14T18:21:37Z</time>
      </trkpt>
      <trkpt lat="47.32384" lon="-2.48567">
        <ele>1</ele>
        <time>2020-03-14T18:23:18Z</time>
      </trkpt>
      <trkpt lat="47.32442" lon="-2.48573">
        <ele>1</ele>
        <time>2020-03-14T18:24:36Z</time>
      </trkpt>
      <trkpt lat="47.32524" lon="-2.48643">
        <ele>1</ele>
        <time>2020-03-14T18:26:42Z</time>
      </trkpt>
      <trkpt lat="47.32584" lon="-2.48684">
        <ele>2</ele>
        <time>2020-03-14T18:28:10Z</time>
      </trkpt>
      <trkpt lat="47.32681" lon="-2.48652">
        <ele>2</ele>
        <time>2020-03-14T18:30:23Z</time>
      </trkpt>
      <trkpt lat="47.32767" lon="-2.48591">
        <ele>2</ele>
        <time>2020-03-14T18:32:30Z</time>
      </trkpt>
      <trkpt lat="47.32877" lon="-2.48599">
        <ele>2</ele>
        <time>2020-03-14T18:34:57Z</time>
      </trkpt>
      <trkpt lat="47.32889" lon="-2.48606">
        <ele>2</ele>
        <time>2020-03-14T18:35:15Z</time>
      </trkpt>
      <trkpt lat="47.3292" lon="-2.48596">
        <ele>2</ele>
        <time>2020-03-14T18:35:57Z</time>
      </trkpt>
      <trkpt lat="47.32945" lon="-2.48604">
        <ele>2</ele>
        <time>2020-03-14T18:36:31Z</time>
      </trkpt>
      <trkpt lat="47.33006" lon="-2.48576">
        <ele>1</ele>
        <time>2020-03-14T18:37:56Z</time>
      </trkpt>
      <trkpt lat="47.33041" lon="-2.48554">
        <ele>1</ele>
        <time>2020-03-14T18:38:47Z</time>
      </trkpt>
      <trkpt lat="47.33074" lon="-2.48536">
        <ele>1</ele>
        <time>2020-03-14T18:39:34Z</time>
      </trkpt>
      <trkpt lat="47.33113" lon="-2.48531">
        <ele>1</ele>
        <time>2020-03-14T18:40:26Z</time>
      </trkpt>
      <trkpt lat="47.33146" lon="-2.48535">
        <ele>1</ele>
        <time>2020-03-14T18:41:11Z</time>
      </trkpt>
      <trkpt lat="47.33182" lon="-2.48552">
        <ele>1</ele>
        <time>2020-03-14T18:42:01Z</time>
      </trkpt>
      <trkpt lat="47.3318" lon="-2.48502">
        <ele>2</ele>
        <time>2020-03-14T18:42:46Z</time>
      </trkpt>
      <trkpt lat="47.33174" lon="-2.48435">
        <ele>3</ele>
        <time>2020-03-14T18:43:47Z</time>
      </trkpt>
      <trkpt lat="47.33167" lon="-2.48397">
        <ele>3</ele>
        <time>2020-03-14T18:44:23Z</time>
      </trkpt>
      <trkpt lat="47.33147" lon="-2.48342">
        <ele>4</ele>
        <time>2020-03-14T18:45:19Z</time>
      </trkpt>
      <trkpt lat="47.33145" lon="-2.48257">
        <ele>4</ele>
        <time>2020-03-14T18:46:36Z</time>
      </trkpt>
      <trkpt lat="47.3314" lon="-2.48218">
        <ele>3</ele>
        <time>2020-03-14T18:47:12Z</time>
      </trkpt>
      <trkpt lat="47.33142" lon="-2.48083">
        <ele>2</ele>
        <time>2020-03-14T18:49:14Z</time>
      </trkpt>
      <trkpt lat="47.33152" lon="-2.47951">
        <ele>3</ele>
        <time>2020-03-14T18:51:15Z</time>
      </trkpt>
      <trkpt lat="47.33154" lon="-2.4792">
        <ele>3</ele>
        <time>2020-03-14T18:51:43Z</time>
      </trkpt>
      <trkpt lat="47.33196" lon="-2.47857">
        <ele>3</ele>
        <time>2020-03-14T18:53:03Z</time>
      </trkpt>
      <trkpt lat="47.33238" lon="-2.47794">
        <ele>4</ele>
        <time>2020-03-14T18:54:23Z</time>
      </trkpt>
      <trkpt lat="47.33323" lon="-2.47722">
        <ele>7</ele>
        <time>2020-03-14T18:56:33Z</time>
      </trkpt>
      <trkpt lat="47.33372" lon="-2.47697">
        <ele>11</ele>
        <time>2020-03-14T18:57:43Z</time>
      </trkpt>
      <trkpt lat="47.33399" lon="-2.47661">
        <ele>13</ele>
        <time>2020-03-14T18:58:31Z</time>
      </trkpt>
      <trkpt lat="47.33482" lon="-2.47607">
        <ele>21</ele>
        <time>2020-03-14T19:00:32Z</time>
      </trkpt>
      <trkpt lat="47.3344" lon="-2.47519">
        <ele>20</ele>
        <time>2020-03-14T19:02:09Z</time>
      </trkpt>
      <trkpt lat="47.33416" lon="-2.47458">
        <ele>20</ele>
        <time>2020-03-14T19:03:13Z</time>
      </trkpt>
      <trkpt lat="47.33411" lon="-2.47407">
        <ele>21</ele>
        <time>2020-03-14T19:04:00Z</time>
      </trkpt>
      <trkpt lat="47.33383" lon="-2.47319">
        <ele>21</ele>
        <time>2020-03-14T19:05:28Z</time>
      </trkpt>
      <trkpt lat="47.33369" lon="-2.47163">
        <ele>20</ele>
        <time>2020-03-14T19:07:50Z</time>
      </trkpt>
      <trkpt lat="47.33352" lon="-2.47086">
        <ele>17</ele>
        <time>2020-03-14T19:09:03Z</time>
      </trkpt>
      <trkpt lat="47.33341" lon="-2.47017">
        <ele>16</ele>
        <time>2020-03-14T19:10:07Z</time>
      </trkpt>
      <trkpt lat="47.33315" lon="-2.46917">
        <ele>20</ele>
        <time>2020-03-14T19:11:44Z</time>
      </trkpt>
      <trkpt lat="47.33271" lon="-2.46786">
        <ele>24</ele>
        <time>2020-03-14T19:13:57Z</time>
      </trkpt>
      <trkpt lat="47.33221" lon="-2.46795">
        <ele>22</ele>
        <time>2020-03-14T19:15:04Z</time>
      </trkpt>
      <trkpt lat="47.33183" lon="-2.4676">
        <ele>21</ele>
        <time>2020-03-14T19:16:04Z</time>
      </trkpt>
      <trkpt lat="47.33158" lon="-2.46717">
        <ele>20</ele>
        <time>2020-03-14T19:16:55Z</time>
      </trkpt>
      <trkpt lat="47.33108" lon="-2.46631">
        <ele>19</ele>
        <time>2020-03-14T19:18:37Z</time>
      </trkpt>
      <trkpt lat="47.33091" lon="-2.46594">
        <ele>18</ele>
        <time>2020-03-14T19:19:18Z</time>
      </trkpt>
      <trkpt lat="47.33076" lon="-2.46526">
        <ele>18</ele>
        <time>2020-03-14T19:20:22Z</time>
      </trkpt>
      <trkpt lat="47.32997" lon="-2.46549">
        <ele>11</ele>
        <time>2020-03-14T19:22:10Z</time>
      </trkpt>
      <trkpt lat="47.32957" lon="-2.46579">
        <ele>9</ele>
        <time>2020-03-14T19:23:10Z</time>
      </trkpt>
      <trkpt lat="47.32961" lon="-2.46383">
        <ele>17</ele>
        <time>2020-03-14T19:26:07Z</time>
      </trkpt>
      <trkpt lat="47.3295" lon="-2.46322">
        <ele>21</ele>
        <time>2020-03-14T19:27:04Z</time>
      </trkpt>
      <trkpt lat="47.32939" lon="-2.4629">
        <ele>22</ele>
        <time>2020-03-14T19:27:37Z</time>
      </trkpt>
      <trkpt lat="47.32898" lon="-2.46141">
        <ele>24</ele>
        <time>2020-03-14T19:30:02Z</time>
      </trkpt>
      <trkpt lat="47.32817" lon="-2.462">
        <ele>17</ele>
        <time>2020-03-14T19:32:03Z</time>
      </trkpt>
      <trkpt lat="47.328" lon="-2.4618">
        <ele>16</ele>
        <time>2020-03-14T19:32:32Z</time>
      </trkpt>
      <trkpt lat="47.32718" lon="-2.46053">
        <ele>12</ele>
        <time>2020-03-14T19:35:10Z</time>
      </trkpt>
      <trkpt lat="47.32626" lon="-2.4595">
        <ele>9</ele>
        <time>2020-03-14T19:37:44Z</time>
      </trkpt>
      <trkpt lat="47.32559" lon="-2.45849">
        <ele>9</ele>
        <time>2020-03-14T19:39:52Z</time>
      </trkpt>
      <trkpt lat="47.32488" lon="-2.45727">
        <ele>8</ele>
        <time>2020-03-14T19:42:18Z</time>
      </trkpt>
      <trkpt lat="47.32427" lon="-2.45618">
        <ele>10</ele>
        <time>2020-03-14T19:44:26Z</time>
      </trkpt>
      <trkpt lat="47.32349" lon="-2.45473">
        <ele>10</ele>
        <time>2020-03-14T19:47:13Z</time>
      </trkpt>
      <trkpt lat="47.32305" lon="-2.45418">
        <ele>10</ele>
        <time>2020-03-14T19:48:30Z</time>
      </trkpt>
      <trkpt lat="47.32324" lon="-2.45397">
        <ele>11</ele>
        <time>2020-03-14T19:49:02Z</time>
      </trkpt>
      <trkpt lat="47.32317" lon="-2.45324">
        <ele>12</ele>
        <time>2020-03-14T19:50:08Z</time>
      </trkpt>
      <trkpt lat="47.3231" lon="-2.45282">
        <ele>12</ele>
        <time>2020-03-14T19:50:47Z</time>
      </trkpt>
      <trkpt lat="47.32295" lon="-2.45248">
        <ele>12</ele>
        <time>2020-03-14T19:51:24Z</time>
      </trkpt>
      <trkpt lat="47.32275" lon="-2.45198">
        <ele>12</ele>
        <time>2020-03-14T19:52:17Z</time>
      </trkpt>
      <trkpt lat="47.32247" lon="-2.45112">
        <ele>14</ele>
        <time>2020-03-14T19:53:43Z</time>
      </trkpt>
      <trkpt lat="47.32212" lon="-2.45028">
        <ele>14</ele>
        <time>2020-03-14T19:55:12Z</time>
      </trkpt>
      <trkpt lat="47.32258" lon="-2.44987">
        <ele>19</ele>
        <time>2020-03-14T19:56:24Z</time>
      </trkpt>
      <trkpt lat="47.32306" lon="-2.44928">
        <ele>21</ele>
        <time>2020-03-14T19:57:47Z</time>
      </trkpt>
      <trkpt lat="47.32346" lon="-2.44872">
        <ele>24</ele>
        <time>2020-03-14T19:59:01Z</time>
      </trkpt>
      <trkpt lat="47.32398" lon="-2.44821">
        <ele>28</ele>
        <time>2020-03-14T20:00:24Z</time>
      </trkpt>
      <trkpt lat="47.32454" lon="-2.44789">
        <ele>33</ele>
        <time>2020-03-14T20:01:44Z</time>
      </trkpt>
      <trkpt lat="47.3251" lon="-2.44751">
        <ele>37</ele>
        <time>2020-03-14T20:03:07Z</time>
      </trkpt>
      <trkpt lat="47.32538" lon="-2.4472">
        <ele>38</ele>
        <time>2020-03-14T20:03:53Z</time>
      </trkpt>
      <trkpt lat="47.3258" lon="-2.44651">
        <ele>40</ele>
        <time>2020-03-14T20:05:17Z</time>
      </trkpt>
      <trkpt lat="47.32616" lon="-2.44601">
        <ele>40</ele>
        <time>2020-03-14T20:06:23Z</time>
      </trkpt>
      <trkpt lat="47.32647" lon="-2.44543">
        <ele>42</ele>
        <time>2020-03-14T20:07:30Z</time>
      </trkpt>
      <trkpt lat="47.32666" lon="-2.44514">
        <ele>42</ele>
        <time>2020-03-14T20:08:06Z</time>
      </trkpt>
      <trkpt lat="47.32662" lon="-2.44497">
        <ele>42</ele>
        <time>2020-03-14T20:08:23Z</time>
      </trkpt>
      <trkpt lat="47.32697" lon="-2.44479">
        <ele>42</ele>
        <time>2020-03-14T20:09:12Z</time>
      </trkpt>
      <trkpt lat="47.32731" lon="-2.44461">
        <ele>43</ele>
        <time>2020-03-14T20:10:00Z</time>
      </trkpt>
      <trkpt lat="47.32755" lon="-2.44435">
        <ele>43</ele>
        <time>2020-03-14T20:10:40Z</time>
      </trkpt>
      <trkpt lat="47.32752" lon="-2.44411">
        <ele>43</ele>
        <time>2020-03-14T20:11:02Z</time>
      </trkpt>
      <trkpt lat="47.32769" lon="-2.44394">
        <ele>43</ele>
        <time>2020-03-14T20:11:30Z</time>
      </trkpt>
      <trkpt lat="47.32765" lon="-2.44355">
        <ele>42</ele>
        <time>2020-03-14T20:12:05Z</time>
      </trkpt>
      <trkpt lat="47.32769" lon="-2.44291">
        <ele>42</ele>
        <time>2020-03-14T20:13:03Z</time>
      </trkpt>
      <trkpt lat="47.32783" lon="-2.44222">
        <ele>43</ele>
        <time>2020-03-14T20:14:09Z</time>
      </trkpt>
      <trkpt lat="47.32797" lon="-2.4416">
        <ele>44</ele>
        <time>2020-03-14T20:15:08Z</time>
      </trkpt>
      <trkpt lat="47.32811" lon="-2.4408">
        <ele>45</ele>
        <time>2020-03-14T20:16:22Z</time>
      </trkpt>
      <trkpt lat="47.32821" lon="-2.44018">
        <ele>45</ele>
        <time>2020-03-14T20:17:20Z</time>
      </trkpt>
      <trkpt lat="47.32829" lon="-2.43984">
        <ele>46</ele>
        <time>2020-03-14T20:17:53Z</time>
      </trkpt>
      <trkpt lat="47.32861" lon="-2.43972">
        <ele>46</ele>
        <time>2020-03-14T20:18:37Z</time>
      </trkpt>
      <trkpt lat="47.32889" lon="-2.43955">
        <ele>46</ele>
        <time>2020-03-14T20:19:17Z</time>
      </trkpt>
      <trkpt lat="47.3292" lon="-2.4394">
        <ele>47</ele>
        <time>2020-03-14T20:20:01Z</time>
      </trkpt>
      <trkpt lat="47.32942" lon="-2.43929">
        <ele>47</ele>
        <time>2020-03-14T20:20:32Z</time>
      </trkpt>
      <trkpt lat="47.32933" lon="-2.43889">
        <ele>47</ele>
        <time>2020-03-14T20:21:10Z</time>
      </trkpt>
      <trkpt lat="47.32926" lon="-2.4385">
        <ele>46</ele>
        <time>2020-03-14T20:21:46Z</time>
      </trkpt>
      <trkpt lat="47.32915" lon="-2.43813">
        <ele>46</ele>
        <time>2020-03-14T20:22:23Z</time>
      </trkpt>
      <trkpt lat="47.32907" lon="-2.4377">
        <ele>47</ele>
        <time>2020-03-14T20:23:03Z</time>
      </trkpt>
      <trkpt lat="47.32913" lon="-2.43743">
        <ele>47</ele>
        <time>2020-03-14T20:23:29Z</time>
      </trkpt>
      <trkpt lat="47.32901" lon="-2.43711">
        <ele>47</ele>
        <time>2020-03-14T20:24:02Z</time>
      </trkpt>
      <trkpt lat="47.32889" lon="-2.43642">
        <ele>47</ele>
        <time>2020-03-14T20:25:06Z</time>
      </trkpt>
      <trkpt lat="47.3288" lon="-2.43573">
        <ele>47</ele>
        <time>2020-03-14T20:26:10Z</time>
      </trkpt>
      <trkpt lat="47.32874" lon="-2.43508">
        <ele>46</ele>
        <time>2020-03-14T20:27:09Z</time>
      </trkpt>
      <trkpt lat="47.32869" lon="-2.4344">
        <ele>45</ele>
        <time>2020-03-14T20:28:11Z</time>
      </trkpt>
      <trkpt lat="47.32862" lon="-2.43365">
        <ele>46</ele>
        <time>2020-03-14T20:29:20Z</time>
      </trkpt>
      <trkpt lat="47.32857" lon="-2.43299">
        <ele>47</ele>
        <time>2020-03-14T20:30:20Z</time>
      </trkpt>
      <trkpt lat="47.32854" lon="-2.43267">
        <ele>47</ele>
        <time>2020-03-14T20:30:49Z</time>
      </trkpt>
      <trkpt lat="47.32846" lon="-2.43228">
        <ele>48</ele>
        <time>2020-03-14T20:31:26Z</time>
      </trkpt>
      <trkpt lat="47.32824" lon="-2.43239">
        <ele>47</ele>
        <time>2020-03-14T20:31:57Z</time>
      </trkpt>
      <trkpt lat="47.32803" lon="-2.43257">
        <ele>47</ele>
        <time>2020-03-14T20:32:29Z</time>
      </trkpt>
      <trkpt lat="47.32774" lon="-2.43266">
        <ele>46</ele>
        <time>2020-03-14T20:33:09Z</time>
      </trkpt>
      <trkpt lat="47.32751" lon="-2.43269">
        <ele>46</ele>
        <time>2020-03-14T20:33:39Z</time>
      </trkpt>
      <trkpt lat="47.32733" lon="-2.43265">
        <ele>46</ele>
        <time>2020-03-14T20:34:04Z</time>
      </trkpt>
      <trkpt lat="47.32717" lon="-2.43269">
        <ele>46</ele>
        <time>2020-03-14T20:34:25Z</time>
      </trkpt>
      <trkpt lat="47.32708" lon="-2.43256">
        <ele>46</ele>
        <time>2020-03-14T20:34:42Z</time>
      </trkpt>
      <trkpt lat="47.3271" lon="-2.43225">
        <ele>47</ele>
        <time>2020-03-14T20:35:10Z</time>
      </trkpt>
      <trkpt lat="47.32716" lon="-2.43177">
        <ele>49</ele>
        <time>2020-03-14T20:35:54Z</time>
      </trkpt>
      <trkpt lat="47.32721" lon="-2.43138">
        <ele>51</ele>
        <time>2020-03-14T20:36:30Z</time>
      </trkpt>
      <trkpt lat="47.32725" lon="-2.4311">
        <ele>52</ele>
        <time>2020-03-14T20:36:56Z</time>
      </trkpt>
      <trkpt lat="47.3273" lon="-2.43082">
        <ele>53</ele>
        <time>2020-03-14T20:37:22Z</time>
      </trkpt>
      <trkpt lat="47.32732" lon="-2.43063">
        <ele>53</ele>
        <time>2020-03-14T20:37:40Z</time>
      </trkpt>
      <trkpt lat="47.32738" lon="-2.43039">
        <ele>53</ele>
        <time>2020-03-14T20:38:03Z</time>
      </trkpt>
      <trkpt lat="47.32743" lon="-2.43028">
        <ele>53</ele>
        <time>2020-03-14T20:38:15Z</time>
      </trkpt>
      <trkpt lat="47.32754" lon="-2.43019">
        <ele>54</ele>
        <time>2020-03-14T20:38:32Z</time>
      </trkpt>
      <trkpt lat="47.32758" lon="-2.43001">
        <ele>54</ele>
        <time>2020-03-14T20:38:49Z</time>
      </trkpt>
      <trkpt lat="47.32771" lon="-2.42973">
        <ele>54</ele>
        <time>2020-03-14T20:39:20Z</time>
      </trkpt>
      <trkpt lat="47.3278" lon="-2.4295">
        <ele>54</ele>
        <time>2020-03-14T20:39:44Z</time>
      </trkpt>
      <trkpt lat="47.32778" lon="-2.4292">
        <ele>55</ele>
        <time>2020-03-14T20:40:11Z</time>
      </trkpt>
      <trkpt lat="47.32772" lon="-2.4289">
        <ele>55</ele>
        <time>2020-03-14T20:40:39Z</time>
      </trkpt>
      <trkpt lat="47.32759" lon="-2.42848">
        <ele>54</ele>
        <time>2020-03-14T20:41:21Z</time>
      </trkpt>
      <trkpt lat="47.3275" lon="-2.42809">
        <ele>53</ele>
        <time>2020-03-14T20:41:58Z</time>
      </trkpt>
      <trkpt lat="47.32739" lon="-2.42769">
        <ele>52</ele>
        <time>2020-03-14T20:42:37Z</time>
      </trkpt>
      <trkpt lat="47.32729" lon="-2.42726">
        <ele>51</ele>
        <time>2020-03-14T20:43:18Z</time>
      </trkpt>
      <trkpt lat="47.32728" lon="-2.42699">
        <ele>50</ele>
        <time>2020-03-14T20:43:43Z</time>
      </trkpt>
      <trkpt lat="47.3274" lon="-2.42694">
        <ele>50</ele>
        <time>2020-03-14T20:43:59Z</time>
      </trkpt>
      <trkpt lat="47.32758" lon="-2.42695">
        <ele>51</ele>
        <time>2020-03-14T20:44:24Z</time>
      </trkpt>
      <trkpt lat="47.32774" lon="-2.42695">
        <ele>51</ele>
        <time>2020-03-14T20:44:45Z</time>
      </trkpt>
      <trkpt lat="47.32791" lon="-2.42701">
        <ele>52</ele>
        <time>2020-03-14T20:45:08Z</time>
      </trkpt>
      <trkpt lat="47.32849" lon="-2.42713">
        <ele>53</ele>
        <time>2020-03-14T20:46:26Z</time>
      </trkpt>
      <trkpt lat="47.32872" lon="-2.42718">
        <ele>52</ele>
        <time>2020-03-14T20:46:57Z</time>
      </trkpt>
      <trkpt lat="47.32888" lon="-2.42732">
        <ele>52</ele>
        <time>2020-03-14T20:47:22Z</time>
      </trkpt>
      <trkpt lat="47.32903" lon="-2.42748">
        <ele>52</ele>
        <time>2020-03-14T20:47:47Z</time>
      </trkpt>
      <trkpt lat="47.32921" lon="-2.42757">
        <ele>52</ele>
        <time>2020-03-14T20:48:12Z</time>
      </trkpt>
      <trkpt lat="47.32934" lon="-2.42762">
        <ele>52</ele>
        <time>2020-03-14T20:48:30Z</time>
      </trkpt>
      <trkpt lat="47.32947" lon="-2.42776">
        <ele>52</ele>
        <time>2020-03-14T20:48:52Z</time>
      </trkpt>
      <trkpt lat="47.32951" lon="-2.42756">
        <ele>52</ele>
        <time>2020-03-14T20:49:11Z</time>
      </trkpt>
      <trkpt lat="47.32963" lon="-2.42741">
        <ele>51</ele>
        <time>2020-03-14T20:49:31Z</time>
      </trkpt>
      <trkpt lat="47.32975" lon="-2.42725">
        <ele>51</ele>
        <time>2020-03-14T20:49:53Z</time>
      </trkpt>
      <trkpt lat="47.32986" lon="-2.42704">
        <ele>50</ele>
        <time>2020-03-14T20:50:17Z</time>
      </trkpt>
      <trkpt lat="47.33" lon="-2.42718">
        <ele>50</ele>
        <time>2020-03-14T20:50:40Z</time>
      </trkpt>
      <trkpt lat="47.33009" lon="-2.42686">
        <ele>49</ele>
        <time>2020-03-14T20:51:11Z</time>
      </trkpt>
      <trkpt lat="47.33023" lon="-2.42664">
        <ele>49</ele>
        <time>2020-03-14T20:51:38Z</time>
      </trkpt>
      <trkpt lat="47.33036" lon="-2.4267">
        <ele>49</ele>
        <time>2020-03-14T20:51:56Z</time>
      </trkpt>
      <trkpt lat="47.33049" lon="-2.42682">
        <ele>49</ele>
        <time>2020-03-14T20:52:17Z</time>
      </trkpt>
      <trkpt lat="47.3307" lon="-2.42672">
        <ele>48</ele>
        <time>2020-03-14T20:52:46Z</time>
      </trkpt>
      <trkpt lat="47.33094" lon="-2.42652">
        <ele>47</ele>
        <time>2020-03-14T20:53:23Z</time>
      </trkpt>
      <trkpt lat="47.33114" lon="-2.42638">
        <ele>47</ele>
        <time>2020-03-14T20:53:53Z</time>
      </trkpt>
      <trkpt lat="47.331" lon="-2.42608">
        <ele>47</ele>
        <time>2020-03-14T20:54:26Z</time>
      </trkpt>
      <trkpt lat="47.33095" lon="-2.42598">
        <ele>47</ele>
        <time>2020-03-14T20:54:37Z</time>
      </trkpt>
      <trkpt lat="47.33111" lon="-2.42582">
        <ele>46</ele>
        <time>2020-03-14T20:55:03Z</time>
      </trkpt>
      <trkpt lat="47.33134" lon="-2.42568">
        <ele>46</ele>
        <time>2020-03-14T20:55:36Z</time>
      </trkpt>
      <trkpt lat="47.3316" lon="-2.42547">
        <ele>46</ele>
        <time>2020-03-14T20:56:15Z</time>
      </trkpt>
      <trkpt lat="47.33188" lon="-2.42523">
        <ele>46</ele>
        <time>2020-03-14T20:56:59Z</time>
      </trkpt>
      <trkpt lat="47.33211" lon="-2.42505">
        <ele>46</ele>
        <time>2020-03-14T20:57:33Z</time>
      </trkpt>
      <trkpt lat="47.33238" lon="-2.42484">
        <ele>47</ele>
        <time>2020-03-14T20:58:14Z</time>
      </trkpt>
      <trkpt lat="47.33258" lon="-2.42474">
        <ele>47</ele>
        <time>2020-03-14T20:58:42Z</time>
      </trkpt>
      <trkpt lat="47.33288" lon="-2.42454">
        <ele>47</ele>
        <time>2020-03-14T20:59:26Z</time>
      </trkpt>
      <trkpt lat="47.33312" lon="-2.4244">
        <ele>48</ele>
        <time>2020-03-14T21:00:01Z</time>
      </trkpt>
      <trkpt lat="47.33335" lon="-2.42422">
        <ele>48</ele>
        <time>2020-03-14T21:00:35Z</time>
      </trkpt>
      <trkpt lat="47.33351" lon="-2.42414">
        <ele>48</ele>
        <time>2020-03-14T21:00:58Z</time>
      </trkpt>
      <trkpt lat="47.3337" lon="-2.42416">
        <ele>48</ele>
        <time>2020-03-14T21:01:23Z</time>
      </trkpt>
      <trkpt lat="47.3338" lon="-2.42434">
        <ele>49</ele>
        <time>2020-03-14T21:01:44Z</time>
      </trkpt>
      <trkpt lat="47.3339" lon="-2.42436">
        <ele>49</ele>
        <time>2020-03-14T21:01:58Z</time>
      </trkpt>
      <trkpt lat="47.33398" lon="-2.42429">
        <ele>49</ele>
        <time>2020-03-14T21:02:10Z</time>
      </trkpt>
      <trkpt lat="47.33394" lon="-2.42404">
        <ele>49</ele>
        <time>2020-03-14T21:02:34Z</time>
      </trkpt>
      <trkpt lat="47.33387" lon="-2.42384">
        <ele>49</ele>
        <time>2020-03-14T21:02:54Z</time>
      </trkpt>
      <trkpt lat="47.3338" lon="-2.42359">
        <ele>49</ele>
        <time>2020-03-14T21:03:18Z</time>
      </trkpt>
      <trkpt lat="47.33377" lon="-2.42339">
        <ele>49</ele>
        <time>2020-03-14T21:03:37Z</time>
      </trkpt>
      <trkpt lat="47.3337" lon="-2.42316">
        <ele>49</ele>
        <time>2020-03-14T21:04:00Z</time>
      </trkpt>
      <trkpt lat="47.33364" lon="-2.42296">
        <ele>49</ele>
        <time>2020-03-14T21:04:19Z</time>
      </trkpt>
      <trkpt lat="47.3337" lon="-2.42275">
        <ele>49</ele>
        <time>2020-03-14T21:04:40Z</time>
      </trkpt>
      <trkpt lat="47.33366" lon="-2.42247">
        <ele>49</ele>
        <time>2020-03-14T21:05:06Z</time>
      </trkpt>
      <trkpt lat="47.33354" lon="-2.42221">
        <ele>48</ele>
        <time>2020-03-14T21:05:34Z</time>
      </trkpt>
      <trkpt lat="47.33341" lon="-2.42201">
        <ele>48</ele>
        <time>2020-03-14T21:05:59Z</time>
      </trkpt>
      <trkpt lat="47.33326" lon="-2.42193">
        <ele>48</ele>
        <time>2020-03-14T21:06:21Z</time>
      </trkpt>
      <trkpt lat="47.33303" lon="-2.42193">
        <ele>48</ele>
        <time>2020-03-14T21:06:51Z</time>
      </trkpt>
      <trkpt lat="47.33282" lon="-2.42193">
        <ele>48</ele>
        <time>2020-03-14T21:07:19Z</time>
      </trkpt>
      <trkpt lat="47.33264" lon="-2.42193">
        <ele>47</ele>
        <time>2020-03-14T21:07:43Z</time>
      </trkpt>
      <trkpt lat="47.33252" lon="-2.42191">
        <ele>47</ele>
        <time>2020-03-14T21:08:00Z</time>
      </trkpt>
      <trkpt lat="47.33238" lon="-2.42204">
        <ele>47</ele>
        <time>2020-03-14T21:08:22Z</time>
      </trkpt>
      <trkpt lat="47.33232" lon="-2.42187">
        <ele>47</ele>
        <time>2020-03-14T21:08:39Z</time>
      </trkpt>
      <trkpt lat="47.33226" lon="-2.42168">
        <ele>47</ele>
        <time>2020-03-14T21:08:58Z</time>
      </trkpt>
      <trkpt lat="47.33217" lon="-2.42149">
        <ele>47</ele>
        <time>2020-03-14T21:09:19Z</time>
      </trkpt>
      <trkpt lat="47.33204" lon="-2.42136">
        <ele>47</ele>
        <time>2020-03-14T21:09:40Z</time>
      </trkpt>
      <trkpt lat="47.33196" lon="-2.42124">
        <ele>47</ele>
        <time>2020-03-14T21:09:55Z</time>
      </trkpt>
      <trkpt lat="47.33188" lon="-2.42107">
        <ele>46</ele>
        <time>2020-03-14T21:10:14Z</time>
      </trkpt>
      <trkpt lat="47.33173" lon="-2.42101">
        <ele>46</ele>
        <time>2020-03-14T21:10:35Z</time>
      </trkpt>
      <trkpt lat="47.33157" lon="-2.4208">
        <ele>46</ele>
        <time>2020-03-14T21:11:03Z</time>
      </trkpt>
      <trkpt lat="47.33155" lon="-2.42059">
        <ele>45</ele>
        <time>2020-03-14T21:11:22Z</time>
      </trkpt>
      <trkpt lat="47.33155" lon="-2.42039">
        <ele>45</ele>
        <time>2020-03-14T21:11:40Z</time>
      </trkpt>
      <trkpt lat="47.33142" lon="-2.42032">
        <ele>45</ele>
        <time>2020-03-14T21:11:59Z</time>
      </trkpt>
      <trkpt lat="47.33135" lon="-2.42016">
        <ele>44</ele>
        <time>2020-03-14T21:12:16Z</time>
      </trkpt>
      <trkpt lat="47.3312" lon="-2.41998">
        <ele>44</ele>
        <time>2020-03-14T21:12:42Z</time>
      </trkpt>
      <trkpt lat="47.33102" lon="-2.41982">
        <ele>44</ele>
        <time>2020-03-14T21:13:10Z</time>
      </trkpt>
      <trkpt lat="47.33087" lon="-2.4197">
        <ele>44</ele>
        <time>2020-03-14T21:13:33Z</time>
      </trkpt>
      <trkpt lat="47.33056" lon="-2.41954">
        <ele>43</ele>
        <time>2020-03-14T21:14:17Z</time>
      </trkpt>
    </trkseg>
  </trk>
</gpx>